createdAt,value
2018-11-22T12:16:58.239Z,3.00
2018-11-22T12:19:02.156Z,2.90
2018-11-22T12:21:06.546Z,2.80
2018-11-22T12:23:10.033Z,2.80
2018-11-22T12:25:15.220Z,2.80
2018-11-22T12:27:19.281Z,2.80
2018-11-22T12:29:23.168Z,2.80
2018-11-22T12:31:26.460Z,2.80
2018-11-22T12:33:44.293Z,2.80
2018-11-22T12:35:53.846Z,2.70
2018-11-22T12:38:03.247Z,2.70
2018-11-22T12:40:10.551Z,2.80
2018-11-22T12:42:13.797Z,2.90
2018-11-22T12:44:17.295Z,2.90
2018-11-22T12:46:21.244Z,2.90
2018-11-22T12:48:24.811Z,2.90
2018-11-22T12:50:28.059Z,3.00
2018-11-22T12:52:31.675Z,2.90
2018-11-22T12:54:37.014Z,2.90
2018-11-22T12:56:41.013Z,2.90
2018-11-22T12:58:44.782Z,3.00
2018-11-22T13:00:48.772Z,3.00
2018-11-22T13:02:52.433Z,3.00
2018-11-22T13:04:56.080Z,2.90
2018-11-22T13:06:59.537Z,3.00
2018-11-22T13:09:03.021Z,3.00
2018-11-22T13:11:06.858Z,3.00
2018-11-22T13:13:10.434Z,2.90
2018-11-22T13:15:15.873Z,2.90
2018-11-22T13:17:19.341Z,2.90
2018-11-22T13:19:23.021Z,2.90
2018-11-22T13:21:26.496Z,2.90
2018-11-22T13:23:29.986Z,2.90
2018-11-22T13:25:33.910Z,2.90
2018-11-22T13:27:37.386Z,2.90
2018-11-22T13:29:42.771Z,2.90
2018-11-22T13:31:46.141Z,2.90
2018-11-22T13:33:49.629Z,2.90
2018-11-22T13:35:53.286Z,2.90
2018-11-22T13:37:57.604Z,2.90
2018-11-22T13:40:01.271Z,2.90
2018-11-22T13:42:04.796Z,2.90
2018-11-22T13:44:08.621Z,2.80
2018-11-22T13:46:12.118Z,2.90
2018-11-22T13:48:15.578Z,2.80
2018-11-22T13:50:22.373Z,2.90
2018-11-22T13:52:25.883Z,2.90
2018-11-22T13:54:29.388Z,2.80
2018-11-22T13:56:32.898Z,2.80
2018-11-22T13:58:36.372Z,2.90
2018-11-22T14:00:40.281Z,2.90
2018-11-22T14:02:44.103Z,2.80
2018-11-22T14:04:47.675Z,2.80
2018-11-22T14:06:51.119Z,2.70
2018-11-22T14:08:54.589Z,2.80
2018-11-22T14:10:58.624Z,2.80
2018-11-22T14:13:01.579Z,2.70
2018-11-22T14:15:07.630Z,2.80
2018-11-22T14:17:11.182Z,2.90
2018-11-22T14:19:15.021Z,2.80
2018-11-22T14:21:18.912Z,2.80
2018-11-22T14:23:22.368Z,2.90
2018-11-22T14:25:25.881Z,2.90
2018-11-22T14:27:29.561Z,2.80
2018-11-22T14:29:33.231Z,2.80
2018-11-22T14:31:36.735Z,2.80
2018-11-22T14:33:40.497Z,2.80
2018-11-22T14:35:44.076Z,2.80
2018-11-22T14:37:47.323Z,2.80
2018-11-22T14:39:50.683Z,2.70
2018-11-22T14:41:54.257Z,2.70
2018-11-22T14:43:57.605Z,2.70
2018-11-22T14:46:01.108Z,2.70
2018-11-22T14:48:05.361Z,2.80
2018-11-22T14:50:14.621Z,2.70
2018-11-22T14:52:18.484Z,2.70
2018-11-22T14:54:21.945Z,2.60
2018-11-22T14:56:25.526Z,2.60
2018-11-22T14:58:29.078Z,2.60
2018-11-22T15:00:32.589Z,2.60
2018-11-22T15:02:36.098Z,2.60
2018-11-22T15:04:39.323Z,2.60
2018-11-22T15:06:42.833Z,2.60
2018-11-22T15:08:47.307Z,2.60
2018-11-22T15:10:50.821Z,2.60
2018-11-22T15:12:54.363Z,2.60
2018-11-22T15:14:57.617Z,2.60
2018-11-22T15:17:01.129Z,2.60
2018-11-22T15:19:04.740Z,2.60
2018-11-22T15:21:08.241Z,2.60
2018-11-22T15:23:11.801Z,2.60
2018-11-22T15:25:17.242Z,2.70
2018-11-22T15:27:20.742Z,2.60
2018-11-22T15:29:23.989Z,2.60
2018-11-22T15:31:27.518Z,2.60
2018-11-22T15:33:31.020Z,2.60
2018-11-22T15:35:34.549Z,2.60
2018-11-22T15:37:39.297Z,2.60
2018-11-22T15:39:42.868Z,2.60
2018-11-22T15:41:46.425Z,2.50
2018-11-22T15:43:49.960Z,2.60
2018-11-22T15:45:53.769Z,2.60
2018-11-22T15:47:57.257Z,2.60
2018-11-22T15:50:00.432Z,2.60
2018-11-22T15:52:03.650Z,2.70
2018-11-22T15:54:07.600Z,2.60
2018-11-22T15:56:11.304Z,2.60
2018-11-22T15:58:14.847Z,2.60
2018-11-22T16:00:22.393Z,2.50
2018-11-22T16:02:25.601Z,2.50
2018-11-22T16:04:28.981Z,2.50
2018-11-22T16:06:32.590Z,2.50
2018-11-22T16:08:36.062Z,2.50
2018-11-22T16:10:39.376Z,2.50
2018-11-22T16:12:42.925Z,2.60
2018-11-22T16:14:46.134Z,2.60
2018-11-22T16:16:50.095Z,2.60
2018-11-22T16:18:53.481Z,2.60
2018-11-22T16:20:56.993Z,2.60
2018-11-22T16:23:01.025Z,2.60
2018-11-22T16:25:05.953Z,2.60
2018-11-22T16:27:09.458Z,2.50
2018-11-22T16:29:12.909Z,2.50
2018-11-22T16:31:16.441Z,2.50
2018-11-22T16:33:20.038Z,2.60
2018-11-22T16:35:28.749Z,2.60
2018-11-22T16:37:28.814Z,2.60
2018-11-22T16:39:32.215Z,2.50
2018-11-22T16:41:35.880Z,2.40
2018-11-22T16:43:39.101Z,2.50
2018-11-22T16:45:42.883Z,2.50
2018-11-22T16:47:46.911Z,2.50
2018-11-22T16:49:50.489Z,2.50
2018-11-22T16:51:54.141Z,2.50
2018-11-22T16:53:57.784Z,2.50
2018-11-22T16:56:01.667Z,2.50
2018-11-22T16:58:06.220Z,2.50
2018-11-22T17:00:14.992Z,2.50
2018-11-22T17:02:18.962Z,2.40
2018-11-22T17:04:22.479Z,2.50
2018-11-22T17:06:26.002Z,2.50
2018-11-22T17:08:30.302Z,2.50
2018-11-22T17:10:34.325Z,2.50
2018-11-22T17:12:38.008Z,2.50
2018-11-22T17:14:41.213Z,2.50
2018-11-22T17:16:44.706Z,2.50
2018-11-22T17:18:48.868Z,2.40
2018-11-22T17:20:52.429Z,2.40
2018-11-22T17:22:56.480Z,2.40
2018-11-22T17:24:59.677Z,2.40
2018-11-22T17:27:03.529Z,2.40
2018-11-22T17:29:07.101Z,2.40
2018-11-22T17:31:10.623Z,2.40
2018-11-22T17:33:13.961Z,2.40
2018-11-22T17:35:19.244Z,2.40
2018-11-22T17:37:22.842Z,2.40
2018-11-22T17:39:31.464Z,2.40
2018-11-22T17:41:30.118Z,2.40
2018-11-22T17:43:33.650Z,2.40
2018-11-22T17:45:38.465Z,2.50
2018-11-22T17:47:42.580Z,2.40
2018-11-22T17:49:46.062Z,2.50
2018-11-22T17:51:49.298Z,2.40
2018-11-22T17:53:52.496Z,2.40
2018-11-22T17:55:56.171Z,2.40
2018-11-22T17:57:59.649Z,2.40
2018-11-22T18:00:03.524Z,2.40
2018-11-22T18:02:07.245Z,2.50
2018-11-22T18:04:11.084Z,2.40
2018-11-22T18:06:15.275Z,2.40
2018-11-22T18:08:18.895Z,2.40
2018-11-22T18:10:23.829Z,2.40
2018-11-22T18:12:27.070Z,2.30
2018-11-22T18:14:31.078Z,2.40
2018-11-22T18:16:34.943Z,2.40
2018-11-22T18:18:38.300Z,2.40
2018-11-22T18:20:42.126Z,2.40
2018-11-22T18:22:46.285Z,2.30
2018-11-22T18:24:49.853Z,2.40
2018-11-22T18:26:53.405Z,2.40
2018-11-22T18:28:56.997Z,2.40
2018-11-22T18:31:00.795Z,2.50
2018-11-22T18:33:06.095Z,2.50
2018-11-22T18:35:11.317Z,2.50
2018-11-22T18:37:14.809Z,2.50
2018-11-22T18:39:18.326Z,2.50
2018-11-22T18:41:21.831Z,2.40
2018-11-22T18:43:25.564Z,2.40
2018-11-22T18:45:32.879Z,2.50
2018-11-22T18:47:36.373Z,2.50
2018-11-22T18:49:39.998Z,2.50
2018-11-22T18:51:43.515Z,2.40
2018-11-22T18:53:47.020Z,2.40
2018-11-22T18:55:50.251Z,2.40
2018-11-22T18:57:53.829Z,2.30
2018-11-22T18:59:57.010Z,2.30
2018-11-22T19:02:00.390Z,2.30
2018-11-22T19:04:04.354Z,2.40
2018-11-22T19:06:07.907Z,2.40
2018-11-22T19:08:12.040Z,2.40
2018-11-22T19:10:17.537Z,2.40
2018-11-22T19:12:21.120Z,2.50
2018-11-22T19:14:24.732Z,2.40
2018-11-22T19:16:28.263Z,2.40
2018-11-22T19:18:31.810Z,2.40
2018-11-22T19:20:37.149Z,2.40
2018-11-22T19:22:40.847Z,2.40
2018-11-22T19:24:44.034Z,2.40
2018-11-22T19:26:47.538Z,2.50
2018-11-22T19:28:51.054Z,2.50
2018-11-22T19:30:54.269Z,2.40
2018-11-22T19:32:59.214Z,2.40
2018-11-22T19:35:02.439Z,2.30
2018-11-22T19:37:06.246Z,2.30
2018-11-22T19:39:09.448Z,2.30
2018-11-22T19:41:12.947Z,2.30
2018-11-22T19:43:16.401Z,2.20
2018-11-22T19:45:22.141Z,2.20
2018-11-22T19:47:25.909Z,2.20
2018-11-22T19:49:29.517Z,2.30
2018-11-22T19:51:32.960Z,2.30
2018-11-22T19:53:36.433Z,2.20
2018-11-22T19:55:40.376Z,2.30
2018-11-22T19:57:45.585Z,2.30
2018-11-22T19:59:49.234Z,2.20
2018-11-22T20:01:52.733Z,2.20
2018-11-22T20:03:56.285Z,2.20
2018-11-22T20:05:59.781Z,2.20
2018-11-22T20:08:05.846Z,2.20
2018-11-22T20:10:12.625Z,2.20
2018-11-22T20:12:16.090Z,2.20
2018-11-22T20:14:19.560Z,2.20
2018-11-22T20:16:23.067Z,2.20
2018-11-22T20:18:26.429Z,2.20
2018-11-22T20:20:29.645Z,2.20
2018-11-22T20:22:32.888Z,2.30
2018-11-22T20:24:36.673Z,2.20
2018-11-22T20:26:39.930Z,2.20
2018-11-22T20:28:43.413Z,2.30
2018-11-22T20:30:48.221Z,2.30
2018-11-22T20:32:51.818Z,2.30
2018-11-22T20:34:55.896Z,2.40
2018-11-22T20:36:59.757Z,2.40
2018-11-22T20:39:03.280Z,2.30
2018-11-22T20:41:07.135Z,2.30
2018-11-22T20:43:10.411Z,2.20
2018-11-22T20:45:15.632Z,2.20
2018-11-22T20:47:19.482Z,2.20
2018-11-22T20:49:22.709Z,2.20
2018-11-22T20:51:26.445Z,2.20
2018-11-22T20:53:30.498Z,2.20
2018-11-22T20:55:35.669Z,2.30
2018-11-22T20:57:39.241Z,2.30
2018-11-22T20:59:43.095Z,2.30
2018-11-22T21:01:51.643Z,2.40
2018-11-22T21:03:49.939Z,2.30
2018-11-22T21:05:53.438Z,2.30
2018-11-22T21:07:56.928Z,2.20
2018-11-22T21:10:00.143Z,2.20
2018-11-22T21:12:03.685Z,2.20
2018-11-22T21:14:08.112Z,2.20
2018-11-22T21:16:11.379Z,2.20
2018-11-22T21:18:15.078Z,2.20
2018-11-22T21:20:19.739Z,2.20
2018-11-22T21:22:23.202Z,2.20
2018-11-22T21:24:26.896Z,2.20
2018-11-22T21:26:30.451Z,2.20
2018-11-22T21:28:33.688Z,2.20
2018-11-22T21:30:38.682Z,2.20
2018-11-22T21:32:43.179Z,2.20
2018-11-22T21:34:46.687Z,2.30
2018-11-22T21:36:49.983Z,2.20
2018-11-22T21:38:53.529Z,2.20
2018-11-22T21:40:56.945Z,2.20
2018-11-22T21:43:01.383Z,2.20
2018-11-22T21:45:07.173Z,2.30
2018-11-22T21:47:10.685Z,2.30
2018-11-22T21:49:14.249Z,2.30
2018-11-22T21:51:17.709Z,2.20
2018-11-22T21:53:21.206Z,2.20
2018-11-22T21:55:25.689Z,2.20
2018-11-22T21:57:29.258Z,2.20
2018-11-22T21:59:33.273Z,2.20
2018-11-22T22:01:37.386Z,2.30
2018-11-22T22:03:41.038Z,2.30
2018-11-22T22:05:44.747Z,2.20
2018-11-22T22:07:48.573Z,2.20
2018-11-22T22:09:52.127Z,2.20
2018-11-22T22:11:55.589Z,2.20
2018-11-22T22:13:59.066Z,2.20
2018-11-22T22:16:02.634Z,2.30
2018-11-22T22:18:06.982Z,2.30
2018-11-22T22:20:13.125Z,2.30
2018-11-22T22:22:16.929Z,2.30
2018-11-22T22:24:20.797Z,2.20
2018-11-22T22:26:24.270Z,2.20
2018-11-22T22:28:28.026Z,2.20
2018-11-22T22:30:32.606Z,2.30
2018-11-22T22:32:36.066Z,2.30
2018-11-22T22:34:39.923Z,2.30
2018-11-22T22:36:43.368Z,2.30
2018-11-22T22:38:47.169Z,2.30
2018-11-22T22:40:50.695Z,2.30
2018-11-22T22:42:55.193Z,2.30
2018-11-22T22:44:59.120Z,2.30
2018-11-22T22:47:02.577Z,2.20
2018-11-22T22:49:06.085Z,2.30
2018-11-22T22:51:09.560Z,2.30
2018-11-22T22:53:13.246Z,2.30
2018-11-22T22:55:16.730Z,2.30
2018-11-22T22:57:20.233Z,2.30
2018-11-22T22:59:24.865Z,2.20
2018-11-22T23:01:28.981Z,2.20
2018-11-22T23:03:32.445Z,2.30
2018-11-22T23:05:36.684Z,2.20
2018-11-22T23:07:40.304Z,2.30
2018-11-22T23:09:43.542Z,2.30
2018-11-22T23:11:47.034Z,2.30
2018-11-22T23:13:50.687Z,2.20
2018-11-22T23:15:54.996Z,2.30
2018-11-22T23:17:58.445Z,2.30
2018-11-22T23:20:01.666Z,2.20
2018-11-22T23:22:04.998Z,2.20
2018-11-22T23:24:08.453Z,2.20
2018-11-22T23:26:11.842Z,2.20
2018-11-22T23:28:15.401Z,2.20
2018-11-22T23:30:21.436Z,2.20
2018-11-22T23:32:25.012Z,2.20
2018-11-22T23:34:28.263Z,2.20
2018-11-22T23:36:32.062Z,2.20
2018-11-22T23:38:35.257Z,2.20
2018-11-22T23:40:38.738Z,2.20
2018-11-22T23:42:42.832Z,2.20
2018-11-22T23:44:46.437Z,2.20
2018-11-22T23:46:49.923Z,2.20
2018-11-22T23:48:53.593Z,2.20
2018-11-22T23:50:57.462Z,2.20
2018-11-22T23:53:02.419Z,2.20
2018-11-22T23:55:06.689Z,2.20
2018-11-22T23:57:10.221Z,2.20
2018-11-22T23:59:13.717Z,2.20
